sensor_id;sensor_type;location;lat;lon;timestamp;P1;durP1;ratioP1;P2;durP2;ratioP2
17564;SDS011;62994;52.126;5.596;2023-04-21T00:00:30;12.77;;;11.52;;
17564;SDS011;62994;52.126;5.596;2023-04-21T00:02:57;14.98;;;11.25;;
17564;SDS011;62994;52.126;5.596;2023-04-21T00:05:33;11.07;;;10.07;;
17564;SDS011;62994;52.126;5.596;2023-04-21T00:08:00;15.73;;;11.90;;
17564;SDS011;62994;52.126;5.596;2023-04-21T00:10:30;19.27;;;12.02;;
17564;SDS011;62994;52.126;5.596;2023-04-21T00:12:58;17.20;;;11.55;;
17564;SDS011;62994;52.126;5.596;2023-04-21T00:15:26;15.32;;;12.18;;
17564;SDS011;62994;52.126;5.596;2023-04-21T00:17:54;13.75;;;12.27;;
17564;SDS011;62994;52.126;5.596;2023-04-21T00:20:22;17.10;;;13.18;;
17564;SDS011;62994;52.126;5.596;2023-04-21T00:22:52;16.20;;;13.05;;
17564;SDS011;62994;52.126;5.596;2023-04-21T00:25:24;17.75;;;13.63;;
17564;SDS011;62994;52.126;5.596;2023-04-21T00:27:52;17.02;;;13.07;;
17564;SDS011;62994;52.126;5.596;2023-04-21T00:30:21;20.48;;;13.60;;
17564;SDS011;62994;52.126;5.596;2023-04-21T00:32:51;18.30;;;13.80;;
17564;SDS011;62994;52.126;5.596;2023-04-21T00:36:00;18.35;;;13.52;;
17564;SDS011;62994;52.126;5.596;2023-04-21T00:38:50;19.02;;;14.73;;
17564;SDS011;62994;52.126;5.596;2023-04-21T00:41:23;20.77;;;13.65;;
17564;SDS011;62994;52.126;5.596;2023-04-21T00:44:01;19.48;;;14.10;;
17564;SDS011;62994;52.126;5.596;2023-04-21T00:46:45;18.63;;;14.60;;
17564;SDS011;62994;52.126;5.596;2023-04-21T00:49:21;16.27;;;13.95;;
17564;SDS011;62994;52.126;5.596;2023-04-21T00:52:08;19.60;;;14.48;;
17564;SDS011;62994;52.126;5.596;2023-04-21T00:54:42;19.27;;;14.40;;
17564;SDS011;62994;52.126;5.596;2023-04-21T00:57:12;20.05;;;15.27;;
17564;SDS011;62994;52.126;5.596;2023-04-21T00:59:43;16.10;;;13.65;;
17564;SDS011;62994;52.126;5.596;2023-04-21T01:02:22;20.02;;;15.23;;
17564;SDS011;62994;52.126;5.596;2023-04-21T01:04:52;18.35;;;14.77;;
17564;SDS011;62994;52.126;5.596;2023-04-21T01:07:27;19.08;;;15.68;;
17564;SDS011;62994;52.126;5.596;2023-04-21T01:09:56;16.25;;;14.45;;
17564;SDS011;62994;52.126;5.596;2023-04-21T01:12:34;20.13;;;14.95;;
17564;SDS011;62994;52.126;5.596;2023-04-21T01:15:20;17.52;;;13.88;;
17564;SDS011;62994;52.126;5.596;2023-04-21T01:17:55;18.05;;;14.10;;
17564;SDS011;62994;52.126;5.596;2023-04-21T01:20:27;24.17;;;14.80;;
17564;SDS011;62994;52.126;5.596;2023-04-21T01:23:17;14.95;;;13.32;;
17564;SDS011;62994;52.126;5.596;2023-04-21T01:25:56;18.35;;;13.93;;
17564;SDS011;62994;52.126;5.596;2023-04-21T01:28:39;19.35;;;15.10;;
17564;SDS011;62994;52.126;5.596;2023-04-21T01:31:14;20.27;;;15.63;;
17564;SDS011;62994;52.126;5.596;2023-04-21T01:33:46;18.80;;;14.88;;
17564;SDS011;62994;52.126;5.596;2023-04-21T01:36:15;20.63;;;15.90;;
17564;SDS011;62994;52.126;5.596;2023-04-21T01:38:57;17.60;;;15.02;;
17564;SDS011;62994;52.126;5.596;2023-04-21T01:41:41;19.17;;;14.90;;
17564;SDS011;62994;52.126;5.596;2023-04-21T01:44:30;17.60;;;14.02;;
17564;SDS011;62994;52.126;5.596;2023-04-21T01:47:05;16.27;;;14.20;;
17564;SDS011;62994;52.126;5.596;2023-04-21T01:49:41;15.82;;;14.15;;
17564;SDS011;62994;52.126;5.596;2023-04-21T01:52:10;19.02;;;14.80;;
17564;SDS011;62994;52.126;5.596;2023-04-21T01:54:45;18.17;;;14.85;;
17564;SDS011;62994;52.126;5.596;2023-04-21T01:57:23;19.65;;;15.52;;
17564;SDS011;62994;52.126;5.596;2023-04-21T01:59:50;19.63;;;15.95;;
17564;SDS011;62994;52.126;5.596;2023-04-21T02:02:32;19.75;;;15.98;;
17564;SDS011;62994;52.126;5.596;2023-04-21T02:05:00;18.98;;;15.18;;
17564;SDS011;62994;52.126;5.596;2023-04-21T02:07:35;17.63;;;14.85;;
17564;SDS011;62994;52.126;5.596;2023-04-21T02:10:06;20.45;;;16.00;;
17564;SDS011;62994;52.126;5.596;2023-04-21T02:12:52;19.33;;;15.93;;
17564;SDS011;62994;52.126;5.596;2023-04-21T02:15:23;17.95;;;14.80;;
17564;SDS011;62994;52.126;5.596;2023-04-21T02:18:02;19.63;;;17.63;;
17564;SDS011;62994;52.126;5.596;2023-04-21T02:20:47;18.27;;;15.70;;
17564;SDS011;62994;52.126;5.596;2023-04-21T02:23:16;18.92;;;15.32;;
17564;SDS011;62994;52.126;5.596;2023-04-21T02:25:52;19.48;;;15.95;;
17564;SDS011;62994;52.126;5.596;2023-04-21T02:28:22;18.80;;;14.95;;
17564;SDS011;62994;52.126;5.596;2023-04-21T02:30:58;16.15;;;14.20;;
17564;SDS011;62994;52.126;5.596;2023-04-21T02:33:33;18.67;;;15.20;;
17564;SDS011;62994;52.126;5.596;2023-04-21T02:36:09;19.02;;;15.23;;
17564;SDS011;62994;52.126;5.596;2023-04-21T02:38:43;20.35;;;16.58;;
17564;SDS011;62994;52.126;5.596;2023-04-21T02:41:15;21.15;;;16.20;;
17564;SDS011;62994;52.126;5.596;2023-04-21T02:44:02;21.23;;;16.30;;
17564;SDS011;62994;52.126;5.596;2023-04-21T02:46:30;22.13;;;17.17;;
17564;SDS011;62994;52.126;5.596;2023-04-21T02:49:08;18.55;;;15.45;;
17564;SDS011;62994;52.126;5.596;2023-04-21T02:51:42;19.77;;;16.13;;
17564;SDS011;62994;52.126;5.596;2023-04-21T02:54:12;23.10;;;16.13;;
17564;SDS011;62994;52.126;5.596;2023-04-21T02:59:46;19.00;;;15.98;;
17564;SDS011;62994;52.126;5.596;2023-04-21T03:02:23;19.00;;;15.90;;
17564;SDS011;62994;52.126;5.596;2023-04-21T03:04:57;21.35;;;15.95;;
17564;SDS011;62994;52.126;5.596;2023-04-21T03:07:38;21.05;;;16.20;;
17564;SDS011;62994;52.126;5.596;2023-04-21T03:10:10;21.63;;;17.15;;
17564;SDS011;62994;52.126;5.596;2023-04-21T03:12:46;20.27;;;16.70;;
17564;SDS011;62994;52.126;5.596;2023-04-21T03:15:17;18.92;;;16.77;;
17564;SDS011;62994;52.126;5.596;2023-04-21T03:17:47;18.50;;;15.38;;
17564;SDS011;62994;52.126;5.596;2023-04-21T03:20:18;22.02;;;15.48;;
17564;SDS011;62994;52.126;5.596;2023-04-21T03:22:54;18.63;;;15.75;;
17564;SDS011;62994;52.126;5.596;2023-04-21T03:25:22;23.00;;;16.90;;
17564;SDS011;62994;52.126;5.596;2023-04-21T03:28:01;20.42;;;15.77;;
17564;SDS011;62994;52.126;5.596;2023-04-21T03:30:34;18.30;;;16.00;;
17564;SDS011;62994;52.126;5.596;2023-04-21T03:33:06;21.65;;;16.23;;
17564;SDS011;62994;52.126;5.596;2023-04-21T03:35:37;23.35;;;16.30;;
17564;SDS011;62994;52.126;5.596;2023-04-21T03:38:08;20.55;;;16.70;;
17564;SDS011;62994;52.126;5.596;2023-04-21T03:41:08;19.83;;;16.05;;
17564;SDS011;62994;52.126;5.596;2023-04-21T03:43:38;16.48;;;14.88;;
17564;SDS011;62994;52.126;5.596;2023-04-21T03:46:16;18.98;;;15.07;;
17564;SDS011;62994;52.126;5.596;2023-04-21T03:48:50;17.20;;;14.90;;
17564;SDS011;62994;52.126;5.596;2023-04-21T03:51:28;19.13;;;15.98;;
17564;SDS011;62994;52.126;5.596;2023-04-21T03:53:59;17.30;;;15.50;;
17564;SDS011;62994;52.126;5.596;2023-04-21T03:56:32;20.92;;;17.05;;
17564;SDS011;62994;52.126;5.596;2023-04-21T03:59:02;21.98;;;16.58;;
17564;SDS011;62994;52.126;5.596;2023-04-21T04:01:37;22.38;;;17.05;;
17564;SDS011;62994;52.126;5.596;2023-04-21T04:04:07;18.48;;;16.58;;
17564;SDS011;62994;52.126;5.596;2023-04-21T04:06:37;19.63;;;16.50;;
17564;SDS011;62994;52.126;5.596;2023-04-21T04:09:10;21.95;;;17.73;;
17564;SDS011;62994;52.126;5.596;2023-04-21T04:11:38;17.70;;;15.75;;
17564;SDS011;62994;52.126;5.596;2023-04-21T04:14:07;19.02;;;16.48;;
17564;SDS011;62994;52.126;5.596;2023-04-21T04:16:40;18.02;;;15.57;;
17564;SDS011;62994;52.126;5.596;2023-04-21T04:19:08;17.50;;;14.65;;
17564;SDS011;62994;52.126;5.596;2023-04-21T04:21:36;17.83;;;15.52;;
17564;SDS011;62994;52.126;5.596;2023-04-21T04:24:15;18.38;;;16.45;;
17564;SDS011;62994;52.126;5.596;2023-04-21T04:26:45;18.65;;;16.10;;
17564;SDS011;62994;52.126;5.596;2023-04-21T04:29:19;27.35;;;17.85;;
17564;SDS011;62994;52.126;5.596;2023-04-21T04:31:51;21.38;;;17.35;;
17564;SDS011;62994;52.126;5.596;2023-04-21T04:34:25;23.35;;;18.95;;
17564;SDS011;62994;52.126;5.596;2023-04-21T04:37:00;21.25;;;18.52;;
17564;SDS011;62994;52.126;5.596;2023-04-21T04:39:31;19.80;;;17.65;;
17564;SDS011;62994;52.126;5.596;2023-04-21T04:42:21;23.50;;;19.05;;
17564;SDS011;62994;52.126;5.596;2023-04-21T04:47:33;26.10;;;18.55;;
17564;SDS011;62994;52.126;5.596;2023-04-21T04:50:10;24.73;;;18.92;;
17564;SDS011;62994;52.126;5.596;2023-04-21T04:52:55;27.70;;;19.77;;
17564;SDS011;62994;52.126;5.596;2023-04-21T04:55:24;27.92;;;21.17;;
17564;SDS011;62994;52.126;5.596;2023-04-21T04:57:53;27.88;;;20.23;;
17564;SDS011;62994;52.126;5.596;2023-04-21T05:00:30;29.25;;;20.83;;
17564;SDS011;62994;52.126;5.596;2023-04-21T05:02:59;29.27;;;19.98;;
17564;SDS011;62994;52.126;5.596;2023-04-21T05:05:32;29.33;;;20.40;;
17564;SDS011;62994;52.126;5.596;2023-04-21T05:08:11;30.92;;;22.20;;
17564;SDS011;62994;52.126;5.596;2023-04-21T05:10:43;28.65;;;21.13;;
17564;SDS011;62994;52.126;5.596;2023-04-21T05:13:22;30.67;;;21.45;;
17564;SDS011;62994;52.126;5.596;2023-04-21T05:15:51;34.38;;;23.08;;
17564;SDS011;62994;52.126;5.596;2023-04-21T05:18:23;32.75;;;23.52;;
17564;SDS011;62994;52.126;5.596;2023-04-21T05:20:52;35.63;;;23.65;;
17564;SDS011;62994;52.126;5.596;2023-04-21T05:23:46;34.42;;;23.83;;
17564;SDS011;62994;52.126;5.596;2023-04-21T05:26:52;36.42;;;24.08;;
17564;SDS011;62994;52.126;5.596;2023-04-21T05:30:03;39.13;;;25.95;;
17564;SDS011;62994;52.126;5.596;2023-04-21T05:33:01;38.22;;;24.05;;
17564;SDS011;62994;52.126;5.596;2023-04-21T05:36:09;40.45;;;25.63;;
17564;SDS011;62994;52.126;5.596;2023-04-21T05:38:44;37.95;;;24.55;;
17564;SDS011;62994;52.126;5.596;2023-04-21T05:41:23;35.53;;;24.48;;
17564;SDS011;62994;52.126;5.596;2023-04-21T05:54:47;34.17;;;24.48;;
17564;SDS011;62994;52.126;5.596;2023-04-21T05:57:28;36.30;;;24.23;;
17564;SDS011;62994;52.126;5.596;2023-04-21T06:00:06;37.95;;;24.15;;
17564;SDS011;62994;52.126;5.596;2023-04-21T06:03:00;33.75;;;24.92;;
17564;SDS011;62994;52.126;5.596;2023-04-21T06:05:54;39.55;;;25.73;;
17564;SDS011;62994;52.126;5.596;2023-04-21T06:08:50;39.10;;;25.33;;
17564;SDS011;62994;52.126;5.596;2023-04-21T06:17:51;34.20;;;24.38;;
17564;SDS011;62994;52.126;5.596;2023-04-21T06:21:01;37.20;;;25.65;;
17564;SDS011;62994;52.126;5.596;2023-04-21T06:23:33;37.85;;;26.17;;
17564;SDS011;62994;52.126;5.596;2023-04-21T06:28:56;39.40;;;27.20;;
17564;SDS011;62994;52.126;5.596;2023-04-21T06:34:28;37.03;;;25.70;;
17564;SDS011;62994;52.126;5.596;2023-04-21T06:37:01;43.20;;;25.08;;
17564;SDS011;62994;52.126;5.596;2023-04-21T06:39:33;37.50;;;25.52;;
17564;SDS011;62994;52.126;5.596;2023-04-21T06:42:09;40.35;;;26.08;;
17564;SDS011;62994;52.126;5.596;2023-04-21T06:44:40;35.67;;;25.45;;
17564;SDS011;62994;52.126;5.596;2023-04-21T06:47:34;41.83;;;26.67;;
17564;SDS011;62994;52.126;5.596;2023-04-21T06:50:19;36.45;;;25.10;;
17564;SDS011;62994;52.126;5.596;2023-04-21T06:55:47;37.88;;;25.45;;
17564;SDS011;62994;52.126;5.596;2023-04-21T06:58:41;36.55;;;25.35;;
17564;SDS011;62994;52.126;5.596;2023-04-21T07:01:13;44.40;;;27.00;;
17564;SDS011;62994;52.126;5.596;2023-04-21T07:06:56;34.67;;;25.00;;
17564;SDS011;62994;52.126;5.596;2023-04-21T07:10:11;35.58;;;26.00;;
17564;SDS011;62994;52.126;5.596;2023-04-21T07:12:57;31.70;;;24.98;;
17564;SDS011;62994;52.126;5.596;2023-04-21T07:19:01;36.53;;;25.67;;
17564;SDS011;62994;52.126;5.596;2023-04-21T07:22:08;32.50;;;24.65;;
17564;SDS011;62994;52.126;5.596;2023-04-21T07:25:09;31.35;;;24.20;;
17564;SDS011;62994;52.126;5.596;2023-04-21T07:28:18;31.27;;;22.65;;
17564;SDS011;62994;52.126;5.596;2023-04-21T07:31:23;29.48;;;23.27;;
17564;SDS011;62994;52.126;5.596;2023-04-21T07:40:31;28.08;;;21.90;;
17564;SDS011;62994;52.126;5.596;2023-04-21T07:43:06;28.58;;;21.95;;
17564;SDS011;62994;52.126;5.596;2023-04-21T07:49:02;30.90;;;22.98;;
17564;SDS011;62994;52.126;5.596;2023-04-21T07:51:34;25.80;;;21.48;;
17564;SDS011;62994;52.126;5.596;2023-04-21T07:54:31;32.22;;;22.27;;
17564;SDS011;62994;52.126;5.596;2023-04-21T07:57:17;24.05;;;20.60;;
17564;SDS011;62994;52.126;5.596;2023-04-21T08:00:43;26.48;;;21.15;;
17564;SDS011;62994;52.126;5.596;2023-04-21T08:03:12;27.20;;;21.77;;
17564;SDS011;62994;52.126;5.596;2023-04-21T08:06:44;29.58;;;22.40;;
17564;SDS011;62994;52.126;5.596;2023-04-21T08:10:55;26.20;;;20.77;;
17564;SDS011;62994;52.126;5.596;2023-04-21T08:12:51;24.77;;;21.13;;
17564;SDS011;62994;52.126;5.596;2023-04-21T08:22:09;29.13;;;22.17;;
17564;SDS011;62994;52.126;5.596;2023-04-21T08:24:51;29.23;;;21.67;;
17564;SDS011;62994;52.126;5.596;2023-04-21T08:27:29;27.02;;;21.27;;
17564;SDS011;62994;52.126;5.596;2023-04-21T08:40:31;21.77;;;19.20;;
17564;SDS011;62994;52.126;5.596;2023-04-21T08:53:27;27.65;;;21.85;;
17564;SDS011;62994;52.126;5.596;2023-04-21T08:56:57;28.05;;;21.48;;
17564;SDS011;62994;52.126;5.596;2023-04-21T08:59:30;26.67;;;21.55;;
17564;SDS011;62994;52.126;5.596;2023-04-21T09:02:13;24.55;;;21.40;;
17564;SDS011;62994;52.126;5.596;2023-04-21T09:05:34;23.05;;;20.70;;
17564;SDS011;62994;52.126;5.596;2023-04-21T09:08:35;25.55;;;20.90;;
17564;SDS011;62994;52.126;5.596;2023-04-21T09:11:23;25.40;;;21.10;;
17564;SDS011;62994;52.126;5.596;2023-04-21T09:19:50;26.92;;;20.58;;
17564;SDS011;62994;52.126;5.596;2023-04-21T09:22:07;24.25;;;20.58;;
17564;SDS011;62994;52.126;5.596;2023-04-21T09:24:14;31.88;;;20.88;;
17564;SDS011;62994;52.126;5.596;2023-04-21T09:27:02;23.90;;;21.10;;
17564;SDS011;62994;52.126;5.596;2023-04-21T09:29:29;24.70;;;20.75;;
17564;SDS011;62994;52.126;5.596;2023-04-21T09:31:56;23.67;;;20.27;;
17564;SDS011;62994;52.126;5.596;2023-04-21T09:34:28;22.58;;;19.52;;
17564;SDS011;62994;52.126;5.596;2023-04-21T09:36:58;24.63;;;20.92;;
17564;SDS011;62994;52.126;5.596;2023-04-21T09:39:32;27.02;;;20.05;;
17564;SDS011;62994;52.126;5.596;2023-04-21T09:42:07;25.67;;;20.85;;
17564;SDS011;62994;52.126;5.596;2023-04-21T09:44:36;23.95;;;20.15;;
17564;SDS011;62994;52.126;5.596;2023-04-21T09:47:03;24.83;;;19.88;;
17564;SDS011;62994;52.126;5.596;2023-04-21T09:49:35;24.83;;;20.95;;
17564;SDS011;62994;52.126;5.596;2023-04-21T09:52:08;23.45;;;20.17;;
17564;SDS011;62994;52.126;5.596;2023-04-21T09:54:36;22.63;;;20.20;;
17564;SDS011;62994;52.126;5.596;2023-04-21T09:57:11;22.25;;;19.67;;
17564;SDS011;62994;52.126;5.596;2023-04-21T09:59:44;23.50;;;19.67;;
17564;SDS011;62994;52.126;5.596;2023-04-21T10:02:12;23.60;;;20.33;;
17564;SDS011;62994;52.126;5.596;2023-04-21T10:04:40;26.85;;;20.13;;
17564;SDS011;62994;52.126;5.596;2023-04-21T10:07:08;23.17;;;19.20;;
17564;SDS011;62994;52.126;5.596;2023-04-21T10:09:38;26.30;;;20.55;;
17564;SDS011;62994;52.126;5.596;2023-04-21T10:12:08;25.35;;;20.80;;
17564;SDS011;62994;52.126;5.596;2023-04-21T10:14:37;21.58;;;19.35;;
17564;SDS011;62994;52.126;5.596;2023-04-21T10:17:05;25.20;;;19.40;;
17564;SDS011;62994;52.126;5.596;2023-04-21T10:19:34;24.13;;;19.70;;
17564;SDS011;62994;52.126;5.596;2023-04-21T10:22:05;22.52;;;20.10;;
17564;SDS011;62994;52.126;5.596;2023-04-21T10:24:35;23.30;;;19.70;;
17564;SDS011;62994;52.126;5.596;2023-04-21T10:27:03;21.85;;;19.65;;
17564;SDS011;62994;52.126;5.596;2023-04-21T10:29:31;27.52;;;19.60;;
17564;SDS011;62994;52.126;5.596;2023-04-21T10:32:00;22.90;;;19.63;;
17564;SDS011;62994;52.126;5.596;2023-04-21T10:34:29;24.63;;;20.35;;
17564;SDS011;62994;52.126;5.596;2023-04-21T10:37:15;23.13;;;19.55;;
17564;SDS011;62994;52.126;5.596;2023-04-21T10:39:53;23.60;;;19.70;;
17564;SDS011;62994;52.126;5.596;2023-04-21T10:42:27;23.92;;;20.02;;
17564;SDS011;62994;52.126;5.596;2023-04-21T10:45:11;21.23;;;18.90;;
17564;SDS011;62994;52.126;5.596;2023-04-21T10:47:41;25.17;;;20.00;;
17564;SDS011;62994;52.126;5.596;2023-04-21T10:50:17;23.75;;;18.63;;
17564;SDS011;62994;52.126;5.596;2023-04-21T10:52:55;20.45;;;18.02;;
17564;SDS011;62994;52.126;5.596;2023-04-21T10:55:25;21.40;;;18.30;;
17564;SDS011;62994;52.126;5.596;2023-04-21T10:58:04;24.05;;;18.85;;
17564;SDS011;62994;52.126;5.596;2023-04-21T11:00:33;23.88;;;19.30;;
17564;SDS011;62994;52.126;5.596;2023-04-21T11:03:04;22.33;;;19.38;;
17564;SDS011;62994;52.126;5.596;2023-04-21T11:05:34;22.45;;;19.38;;
17564;SDS011;62994;52.126;5.596;2023-04-21T11:08:07;21.95;;;19.13;;
17564;SDS011;62994;52.126;5.596;2023-04-21T11:10:44;20.95;;;18.70;;
17564;SDS011;62994;52.126;5.596;2023-04-21T11:13:16;23.95;;;18.08;;
17564;SDS011;62994;52.126;5.596;2023-04-21T11:18:37;25.98;;;18.40;;
17564;SDS011;62994;52.126;5.596;2023-04-21T11:21:06;21.15;;;18.70;;
17564;SDS011;62994;52.126;5.596;2023-04-21T11:23:34;19.83;;;17.70;;
17564;SDS011;62994;52.126;5.596;2023-04-21T11:26:04;22.15;;;17.77;;
17564;SDS011;62994;52.126;5.596;2023-04-21T11:28:31;19.88;;;17.90;;
17564;SDS011;62994;52.126;5.596;2023-04-21T11:30:58;20.55;;;18.20;;
17564;SDS011;62994;52.126;5.596;2023-04-21T11:33:27;20.15;;;18.08;;
17564;SDS011;62994;52.126;5.596;2023-04-21T11:35:55;19.52;;;17.52;;
17564;SDS011;62994;52.126;5.596;2023-04-21T11:38:25;21.60;;;17.27;;
17564;SDS011;62994;52.126;5.596;2023-04-21T11:40:52;20.83;;;18.55;;
17564;SDS011;62994;52.126;5.596;2023-04-21T11:43:19;21.02;;;18.27;;
17564;SDS011;62994;52.126;5.596;2023-04-21T11:45:49;21.20;;;18.88;;
17564;SDS011;62994;52.126;5.596;2023-04-21T11:48:16;20.55;;;17.85;;
17564;SDS011;62994;52.126;5.596;2023-04-21T11:50:48;19.15;;;17.20;;
17564;SDS011;62994;52.126;5.596;2023-04-21T11:53:18;18.65;;;16.77;;
17564;SDS011;62994;52.126;5.596;2023-04-21T11:55:45;19.10;;;17.02;;
17564;SDS011;62994;52.126;5.596;2023-04-21T11:58:12;19.50;;;17.10;;
17564;SDS011;62994;52.126;5.596;2023-04-21T12:00:42;18.20;;;16.10;;
17564;SDS011;62994;52.126;5.596;2023-04-21T12:03:12;18.90;;;17.02;;
17564;SDS011;62994;52.126;5.596;2023-04-21T12:05:39;18.85;;;16.42;;
17564;SDS011;62994;52.126;5.596;2023-04-21T12:08:11;17.60;;;15.90;;
17564;SDS011;62994;52.126;5.596;2023-04-21T12:10:44;16.38;;;14.82;;
17564;SDS011;62994;52.126;5.596;2023-04-21T12:13:11;17.55;;;14.98;;
17564;SDS011;62994;52.126;5.596;2023-04-21T12:15:38;17.08;;;15.45;;
17564;SDS011;62994;52.126;5.596;2023-04-21T12:18:16;18.08;;;15.57;;
17564;SDS011;62994;52.126;5.596;2023-04-21T12:20:47;18.10;;;15.88;;
17564;SDS011;62994;52.126;5.596;2023-04-21T12:23:15;19.02;;;17.13;;
17564;SDS011;62994;52.126;5.596;2023-04-21T12:25:44;20.70;;;17.48;;
17564;SDS011;62994;52.126;5.596;2023-04-21T12:28:12;19.85;;;17.83;;
17564;SDS011;62994;52.126;5.596;2023-04-21T12:30:41;19.85;;;17.50;;
17564;SDS011;62994;52.126;5.596;2023-04-21T12:33:10;21.02;;;17.85;;
17564;SDS011;62994;52.126;5.596;2023-04-21T12:35:37;20.55;;;16.60;;
17564;SDS011;62994;52.126;5.596;2023-04-21T12:38:05;20.13;;;17.33;;
17564;SDS011;62994;52.126;5.596;2023-04-21T12:40:32;22.67;;;17.30;;
17564;SDS011;62994;52.126;5.596;2023-04-21T12:43:06;18.98;;;16.33;;
17564;SDS011;62994;52.126;5.596;2023-04-21T12:45:34;19.90;;;17.35;;
17564;SDS011;62994;52.126;5.596;2023-04-21T12:48:01;20.90;;;18.75;;
17564;SDS011;62994;52.126;5.596;2023-04-21T12:50:29;19.70;;;17.58;;
17564;SDS011;62994;52.126;5.596;2023-04-21T12:52:56;19.73;;;17.40;;
17564;SDS011;62994;52.126;5.596;2023-04-21T12:55:23;20.20;;;16.70;;
17564;SDS011;62994;52.126;5.596;2023-04-21T12:57:51;20.08;;;17.48;;
17564;SDS011;62994;52.126;5.596;2023-04-21T13:00:19;19.48;;;17.35;;
17564;SDS011;62994;52.126;5.596;2023-04-21T13:02:49;19.83;;;17.35;;
17564;SDS011;62994;52.126;5.596;2023-04-21T13:05:17;27.17;;;18.80;;
17564;SDS011;62994;52.126;5.596;2023-04-21T13:07:47;20.02;;;17.90;;
17564;SDS011;62994;52.126;5.596;2023-04-21T13:10:14;20.45;;;18.13;;
17564;SDS011;62994;52.126;5.596;2023-04-21T13:12:41;22.23;;;18.52;;
17564;SDS011;62994;52.126;5.596;2023-04-21T13:15:08;22.33;;;19.15;;
17564;SDS011;62994;52.126;5.596;2023-04-21T13:17:37;22.60;;;18.52;;
17564;SDS011;62994;52.126;5.596;2023-04-21T13:20:04;21.25;;;18.73;;
17564;SDS011;62994;52.126;5.596;2023-04-21T13:22:32;22.85;;;18.20;;
17564;SDS011;62994;52.126;5.596;2023-04-21T13:24:59;22.55;;;18.30;;
17564;SDS011;62994;52.126;5.596;2023-04-21T13:27:26;19.77;;;17.40;;
17564;SDS011;62994;52.126;5.596;2023-04-21T13:29:53;22.08;;;18.25;;
17564;SDS011;62994;52.126;5.596;2023-04-21T13:32:20;20.92;;;18.13;;
17564;SDS011;62994;52.126;5.596;2023-04-21T13:34:50;19.52;;;17.52;;
17564;SDS011;62994;52.126;5.596;2023-04-21T13:37:18;17.98;;;16.35;;
17564;SDS011;62994;52.126;5.596;2023-04-21T13:39:45;16.92;;;15.20;;
17564;SDS011;62994;52.126;5.596;2023-04-21T13:42:15;17.15;;;15.60;;
17564;SDS011;62994;52.126;5.596;2023-04-21T13:44:42;17.88;;;15.43;;
17564;SDS011;62994;52.126;5.596;2023-04-21T13:47:09;17.60;;;15.73;;
17564;SDS011;62994;52.126;5.596;2023-04-21T13:49:36;17.08;;;15.35;;
17564;SDS011;62994;52.126;5.596;2023-04-21T13:52:05;18.13;;;16.40;;
17564;SDS011;62994;52.126;5.596;2023-04-21T13:54:32;18.52;;;15.63;;
17564;SDS011;62994;52.126;5.596;2023-04-21T13:56:59;16.33;;;14.88;;
17564;SDS011;62994;52.126;5.596;2023-04-21T13:59:26;21.77;;;15.82;;
17564;SDS011;62994;52.126;5.596;2023-04-21T14:01:53;16.35;;;14.90;;
17564;SDS011;62994;52.126;5.596;2023-04-21T14:04:24;19.13;;;15.63;;
17564;SDS011;62994;52.126;5.596;2023-04-21T14:06:51;16.55;;;14.95;;
17564;SDS011;62994;52.126;5.596;2023-04-21T14:09:20;14.95;;;12.85;;
17564;SDS011;62994;52.126;5.596;2023-04-21T14:11:47;14.00;;;12.60;;
17564;SDS011;62994;52.126;5.596;2023-04-21T14:14:14;14.63;;;13.27;;
17564;SDS011;62994;52.126;5.596;2023-04-21T14:16:41;13.75;;;12.55;;
17564;SDS011;62994;52.126;5.596;2023-04-21T14:19:08;14.05;;;12.63;;
17564;SDS011;62994;52.126;5.596;2023-04-21T14:21:35;12.77;;;11.88;;
17564;SDS011;62994;52.126;5.596;2023-04-21T14:24:02;14.27;;;12.93;;
17564;SDS011;62994;52.126;5.596;2023-04-21T14:26:31;14.80;;;13.45;;
17564;SDS011;62994;52.126;5.596;2023-04-21T14:28:58;14.45;;;13.15;;
17564;SDS011;62994;52.126;5.596;2023-04-21T14:31:25;16.73;;;13.25;;
17564;SDS011;62994;52.126;5.596;2023-04-21T14:33:53;14.27;;;12.93;;
17564;SDS011;62994;52.126;5.596;2023-04-21T14:36:20;14.50;;;13.23;;
17564;SDS011;62994;52.126;5.596;2023-04-21T14:38:48;15.02;;;13.63;;
17564;SDS011;62994;52.126;5.596;2023-04-21T14:41:15;16.95;;;13.63;;
17564;SDS011;62994;52.126;5.596;2023-04-21T14:43:44;16.33;;;14.65;;
17564;SDS011;62994;52.126;5.596;2023-04-21T14:46:11;17.02;;;15.43;;
17564;SDS011;62994;52.126;5.596;2023-04-21T14:48:38;17.50;;;15.75;;
17564;SDS011;62994;52.126;5.596;2023-04-21T14:51:07;18.73;;;15.77;;
17564;SDS011;62994;52.126;5.596;2023-04-21T14:53:34;15.52;;;14.07;;
17564;SDS011;62994;52.126;5.596;2023-04-21T14:56:01;17.50;;;14.60;;
17564;SDS011;62994;52.126;5.596;2023-04-21T14:58:28;15.40;;;13.95;;
17564;SDS011;62994;52.126;5.596;2023-04-21T15:00:56;17.48;;;15.50;;
17564;SDS011;62994;52.126;5.596;2023-04-21T15:03:23;18.25;;;15.23;;
17564;SDS011;62994;52.126;5.596;2023-04-21T15:05:50;16.35;;;14.77;;
17564;SDS011;62994;52.126;5.596;2023-04-21T15:08:17;17.30;;;15.55;;
17564;SDS011;62994;52.126;5.596;2023-04-21T15:10:44;17.13;;;15.45;;
17564;SDS011;62994;52.126;5.596;2023-04-21T15:13:16;17.50;;;14.85;;
17564;SDS011;62994;52.126;5.596;2023-04-21T15:15:43;17.88;;;15.63;;
17564;SDS011;62994;52.126;5.596;2023-04-21T15:18:12;16.73;;;14.98;;
17564;SDS011;62994;52.126;5.596;2023-04-21T15:20:39;16.60;;;15.15;;
17564;SDS011;62994;52.126;5.596;2023-04-21T15:23:06;16.35;;;14.75;;
17564;SDS011;62994;52.126;5.596;2023-04-21T15:25:33;17.75;;;16.05;;
17564;SDS011;62994;52.126;5.596;2023-04-21T15:28:00;18.67;;;15.13;;
17564;SDS011;62994;52.126;5.596;2023-04-21T15:30:27;20.77;;;14.20;;
17564;SDS011;62994;52.126;5.596;2023-04-21T15:32:55;16.20;;;14.70;;
17564;SDS011;62994;52.126;5.596;2023-04-21T15:35:26;16.35;;;14.65;;
17564;SDS011;62994;52.126;5.596;2023-04-21T15:37:53;16.15;;;14.52;;
17564;SDS011;62994;52.126;5.596;2023-04-21T15:40:20;19.67;;;15.20;;
17564;SDS011;62994;52.126;5.596;2023-04-21T15:42:51;16.30;;;14.65;;
17564;SDS011;62994;52.126;5.596;2023-04-21T15:45:18;16.25;;;14.60;;
17564;SDS011;62994;52.126;5.596;2023-04-21T15:47:44;15.80;;;14.38;;
17564;SDS011;62994;52.126;5.596;2023-04-21T15:50:11;15.48;;;14.07;;
17564;SDS011;62994;52.126;5.596;2023-04-21T15:52:40;17.85;;;14.35;;
17564;SDS011;62994;52.126;5.596;2023-04-21T15:55:07;15.93;;;14.43;;
17564;SDS011;62994;52.126;5.596;2023-04-21T15:57:47;16.40;;;14.23;;
17564;SDS011;62994;52.126;5.596;2023-04-21T16:00:14;17.00;;;15.23;;
17564;SDS011;62994;52.126;5.596;2023-04-21T16:02:42;16.90;;;15.25;;
17564;SDS011;62994;52.126;5.596;2023-04-21T16:05:09;16.50;;;14.75;;
17564;SDS011;62994;52.126;5.596;2023-04-21T16:07:36;15.63;;;13.98;;
17564;SDS011;62994;52.126;5.596;2023-04-21T16:10:05;16.60;;;14.93;;
17564;SDS011;62994;52.126;5.596;2023-04-21T16:12:33;18.13;;;15.55;;
17564;SDS011;62994;52.126;5.596;2023-04-21T16:15:01;15.57;;;14.15;;
17564;SDS011;62994;52.126;5.596;2023-04-21T16:17:28;16.35;;;14.70;;
17564;SDS011;62994;52.126;5.596;2023-04-21T16:19:55;15.95;;;14.18;;
17564;SDS011;62994;52.126;5.596;2023-04-21T16:22:25;16.30;;;14.48;;
17564;SDS011;62994;52.126;5.596;2023-04-21T16:24:52;17.35;;;15.65;;